createdAt,value
2023-04-20T00:02:19.576Z,2.50
2023-04-20T00:04:46.767Z,3.38
2023-04-20T00:07:13.567Z,2.78
2023-04-20T00:09:40.368Z,3.58
2023-04-20T00:12:07.403Z,3.65
2023-04-20T00:14:34.164Z,3.55
2023-04-20T00:17:01.276Z,3.20
2023-04-20T00:19:33.003Z,2.92
2023-04-20T00:22:00.135Z,3.43
2023-04-20T00:24:27.166Z,3.50
2023-04-20T00:26:54.932Z,2.85
2023-04-20T00:29:22.077Z,2.42
2023-04-20T00:31:49.548Z,3.17
2023-04-20T00:34:16.608Z,3.40
2023-04-20T00:36:43.609Z,3.10
2023-04-20T00:39:10.576Z,2.67
2023-04-20T00:41:37.706Z,2.63
2023-04-20T00:44:07.992Z,2.65
2023-04-20T00:46:34.770Z,3.10
2023-04-20T00:49:01.566Z,3.08
2023-04-20T00:51:29.091Z,3.40
2023-04-20T00:53:56.376Z,2.92
2023-04-20T00:56:25.151Z,3.20
2023-04-20T00:58:51.814Z,3.22
2023-04-20T01:01:18.668Z,3.10
2023-04-20T01:03:46.918Z,3.40
2023-04-20T01:06:14.968Z,3.30
2023-04-20T01:08:49.577Z,3.83
2023-04-20T01:11:16.499Z,2.97
2023-04-20T01:13:43.619Z,2.85
2023-04-20T01:16:11.635Z,2.72
2023-04-20T01:18:47.344Z,3.33
2023-04-20T01:21:16.485Z,2.67
2023-04-20T01:23:44.071Z,3.10
2023-04-20T01:26:13.065Z,2.78
2023-04-20T01:28:39.757Z,3.28
2023-04-20T01:31:08.665Z,3.00
2023-04-20T01:33:35.557Z,2.88
2023-04-20T01:36:02.723Z,2.80
2023-04-20T01:38:32.135Z,2.92
2023-04-20T01:41:06.495Z,2.60
2023-04-20T01:43:34.440Z,2.75
2023-04-20T01:46:01.920Z,2.40
2023-04-20T01:48:28.834Z,2.58
2023-04-20T01:50:55.628Z,3.20
2023-04-20T01:53:22.363Z,2.50
2023-04-20T01:55:50.185Z,2.50
2023-04-20T01:58:17.318Z,2.85
2023-04-20T02:00:44.526Z,2.38
2023-04-20T02:03:11.923Z,3.20
2023-04-20T02:05:38.909Z,2.92
2023-04-20T02:08:05.837Z,3.53
2023-04-20T02:10:32.610Z,2.90
2023-04-20T02:12:59.327Z,3.47
2023-04-20T02:15:26.516Z,4.78
2023-04-20T02:17:53.302Z,6.00
2023-04-20T02:20:20.435Z,3.00
2023-04-20T02:22:47.332Z,4.53
2023-04-20T02:25:14.398Z,2.97
2023-04-20T02:27:41.425Z,2.90
2023-04-20T02:30:09.070Z,2.40
2023-04-20T02:32:36.197Z,3.10
2023-04-20T02:35:04.301Z,2.70
2023-04-20T02:37:31.252Z,2.80
2023-04-20T02:39:58.036Z,2.70
2023-04-20T02:42:26.890Z,2.25
2023-04-20T02:44:55.936Z,2.20
2023-04-20T02:47:22.794Z,2.85
2023-04-20T02:49:51.657Z,2.83
2023-04-20T02:52:18.807Z,2.30
2023-04-20T02:54:45.954Z,2.50
2023-04-20T02:57:15.080Z,2.63
2023-04-20T02:59:42.373Z,2.22
2023-04-20T03:02:24.049Z,2.33
2023-04-20T03:04:51.377Z,2.33
2023-04-20T03:07:20.477Z,2.90
2023-04-20T03:09:48.493Z,2.30
2023-04-20T03:12:22.241Z,2.50
2023-04-20T03:15:10.300Z,2.53
2023-04-20T03:17:56.243Z,2.45
2023-04-20T03:20:23.183Z,2.13
2023-04-20T03:22:50.116Z,2.05
2023-04-20T03:25:19.089Z,2.25
2023-04-20T03:27:54.780Z,2.17
2023-04-20T03:30:22.326Z,2.60
2023-04-20T03:35:21.972Z,2.10
2023-04-20T03:37:48.914Z,2.05
2023-04-20T03:40:15.737Z,2.88
2023-04-20T03:42:42.607Z,2.53
2023-04-20T03:45:10.060Z,2.42
2023-04-20T03:47:36.794Z,2.80
2023-04-20T03:50:04.428Z,2.60
2023-04-20T03:52:31.453Z,2.33
2023-04-20T03:55:00.923Z,3.05
2023-04-20T03:57:28.440Z,2.50
2023-04-20T03:59:57.129Z,2.85
2023-04-20T04:02:26.923Z,2.95
2023-04-20T04:04:54.874Z,3.30
2023-04-20T04:07:22.443Z,2.83
2023-04-20T04:09:50.082Z,2.50
2023-04-20T04:12:17.938Z,3.22
2023-04-20T04:14:44.786Z,3.33
2023-04-20T04:17:14.733Z,3.28
2023-04-20T04:19:43.580Z,2.88
2023-04-20T04:22:10.822Z,2.65
2023-04-20T04:24:45.662Z,2.88
2023-04-20T04:27:15.538Z,2.95
2023-04-20T04:29:52.854Z,2.75
2023-04-20T04:32:24.218Z,3.17
2023-04-20T04:34:52.996Z,2.40
2023-04-20T04:37:20.086Z,3.10
2023-04-20T04:39:51.577Z,3.50
2023-04-20T04:42:24.127Z,2.80
2023-04-20T04:44:56.074Z,2.70
2023-04-20T04:47:29.850Z,3.03
2023-04-20T04:49:56.706Z,2.97
2023-04-20T04:52:23.584Z,3.20
2023-04-20T04:54:50.819Z,3.38
2023-04-20T04:57:17.638Z,3.20
2023-04-20T04:59:44.294Z,3.50
2023-04-20T05:02:11.160Z,3.05
2023-04-20T05:04:38.065Z,3.80
2023-04-20T05:07:04.936Z,3.90
2023-04-20T05:09:33.759Z,3.42
2023-04-20T05:12:00.950Z,3.95
2023-04-20T05:14:27.739Z,3.65
2023-04-20T05:16:54.587Z,3.65
2023-04-20T05:19:21.492Z,3.85
2023-04-20T05:21:48.505Z,3.70
2023-04-20T05:24:15.688Z,3.88
2023-04-20T05:26:42.484Z,3.53
2023-04-20T05:29:09.542Z,3.25
2023-04-20T05:31:36.560Z,3.55
2023-04-20T05:34:03.444Z,3.47
2023-04-20T05:36:30.913Z,3.72
2023-04-20T05:39:00.346Z,4.30
2023-04-20T05:41:27.481Z,3.53
2023-04-20T05:43:59.052Z,3.55
2023-04-20T05:46:26.067Z,3.83
2023-04-20T05:48:52.852Z,3.78
2023-04-20T05:51:19.627Z,3.58
2023-04-20T05:53:46.394Z,3.60
2023-04-20T05:56:14.673Z,3.45
2023-04-20T05:58:41.732Z,4.18
2023-04-20T06:01:08.457Z,4.63
2023-04-20T06:03:35.565Z,4.40
2023-04-20T06:06:02.512Z,4.40
2023-04-20T06:08:29.366Z,4.10
2023-04-20T06:10:57.244Z,5.28
2023-04-20T06:13:24.586Z,4.50
2023-04-20T06:15:52.832Z,4.00
2023-04-20T06:18:20.129Z,3.83
2023-04-20T06:20:47.003Z,4.30
2023-04-20T06:23:13.852Z,4.35
2023-04-20T06:25:40.984Z,4.25
2023-04-20T06:28:07.852Z,3.67
2023-04-20T06:30:35.826Z,4.15
2023-04-20T06:33:03.215Z,4.13
2023-04-20T06:35:30.298Z,3.95
2023-04-20T06:37:57.688Z,4.00
2023-04-20T06:40:28.081Z,4.45
2023-04-20T06:42:54.836Z,5.00
2023-04-20T06:45:21.792Z,3.58
2023-04-20T06:47:48.820Z,3.90
2023-04-20T06:50:16.089Z,3.83
2023-04-20T06:52:43.004Z,3.78
2023-04-20T06:55:10.105Z,3.97
2023-04-20T06:57:40.040Z,4.20
2023-04-20T07:00:11.385Z,4.28
2023-04-20T07:02:49.392Z,4.15
2023-04-20T07:05:17.245Z,4.38
2023-04-20T07:07:44.571Z,4.07
2023-04-20T07:10:12.903Z,4.22
2023-04-20T07:12:42.679Z,4.00
2023-04-20T07:15:10.560Z,4.20
2023-04-20T07:17:37.284Z,4.40
2023-04-20T07:20:10.278Z,4.30
2023-04-20T07:22:38.205Z,4.35
2023-04-20T07:25:08.736Z,4.00
2023-04-20T07:27:37.412Z,3.78
2023-04-20T07:30:06.691Z,4.28
2023-04-20T07:32:34.906Z,4.10
2023-04-20T07:35:01.769Z,4.00
2023-04-20T07:37:28.834Z,4.63
2023-04-20T07:39:56.153Z,4.50
2023-04-20T07:42:23.100Z,4.53
2023-04-20T07:44:50.124Z,5.53
2023-04-20T07:47:16.955Z,5.13
2023-04-20T07:49:44.092Z,4.65
2023-04-20T07:52:16.990Z,4.75
2023-04-20T07:54:47.641Z,4.82
2023-04-20T07:57:15.048Z,5.10
2023-04-20T07:59:41.823Z,5.30
2023-04-20T08:02:08.791Z,4.53
2023-04-20T08:04:38.882Z,5.68
2023-04-20T08:07:05.959Z,5.95
2023-04-20T08:09:32.748Z,5.32
2023-04-20T08:12:00.242Z,5.57
2023-04-20T08:14:26.942Z,5.63
2023-04-20T08:16:54.038Z,5.43
2023-04-20T08:19:21.677Z,6.00
2023-04-20T08:21:48.477Z,5.80
2023-04-20T08:24:15.770Z,5.20
2023-04-20T08:26:45.699Z,5.53
2023-04-20T08:29:12.443Z,5.43
2023-04-20T08:31:39.105Z,5.70
2023-04-20T08:34:05.861Z,5.88
2023-04-20T08:36:32.730Z,5.95
2023-04-20T08:39:08.082Z,6.55
2023-04-20T08:41:35.692Z,6.15
2023-04-20T08:44:03.024Z,5.63
2023-04-20T08:46:31.257Z,6.03
2023-04-20T08:49:00.384Z,6.43
2023-04-20T08:51:27.835Z,6.03
2023-04-20T08:53:56.238Z,6.20
2023-04-20T08:56:39.823Z,5.90
2023-04-20T08:59:09.971Z,6.50
2023-04-20T09:01:38.073Z,7.07
2023-04-20T09:04:20.553Z,6.50
2023-04-20T09:06:52.435Z,7.15
2023-04-20T09:09:20.620Z,6.30
2023-04-20T09:11:48.212Z,6.65
2023-04-20T09:14:16.985Z,6.15
2023-04-20T09:16:51.224Z,5.90
2023-04-20T09:19:25.549Z,5.72
2023-04-20T09:21:54.634Z,5.97
2023-04-20T09:24:31.640Z,5.80
2023-04-20T09:26:58.854Z,5.45
2023-04-20T09:29:25.720Z,7.15
2023-04-20T09:31:53.010Z,5.70
2023-04-20T09:34:20.418Z,5.25
2023-04-20T09:36:54.182Z,5.50
2023-04-20T09:39:22.907Z,4.75
2023-04-20T09:41:52.023Z,5.45
2023-04-20T09:44:19.743Z,5.20
2023-04-20T09:46:47.301Z,4.88
2023-04-20T09:49:15.105Z,5.75
2023-04-20T09:51:45.184Z,5.28
2023-04-20T09:54:12.902Z,4.72
2023-04-20T09:56:40.303Z,4.03
2023-04-20T09:59:07.983Z,5.30
2023-04-20T10:01:37.424Z,4.50
2023-04-20T10:04:09.040Z,4.88
2023-04-20T10:06:37.312Z,4.43
2023-04-20T10:09:06.622Z,4.55
2023-04-20T10:11:52.812Z,4.72
2023-04-20T10:14:23.859Z,5.20
2023-04-20T10:17:11.292Z,4.35
2023-04-20T10:19:39.663Z,4.45
2023-04-20T10:22:07.772Z,4.97
2023-04-20T10:24:34.621Z,4.35
2023-04-20T10:27:02.788Z,4.53
2023-04-20T10:29:29.748Z,4.10
2023-04-20T10:31:56.685Z,4.85
2023-04-20T10:34:33.164Z,4.35
2023-04-20T10:37:11.860Z,4.07
2023-04-20T10:39:46.457Z,3.92
2023-04-20T10:42:16.048Z,4.57
2023-04-20T10:44:51.260Z,4.43
2023-04-20T10:47:26.333Z,4.20
2023-04-20T10:49:53.297Z,4.05
2023-04-20T10:52:33.514Z,4.43
2023-04-20T10:55:00.404Z,4.22
2023-04-20T10:57:27.202Z,4.78
2023-04-20T10:59:54.117Z,5.32
2023-04-20T11:02:21.468Z,5.80
2023-04-20T11:04:48.292Z,6.00
2023-04-20T11:07:15.170Z,5.90
2023-04-20T11:09:43.158Z,5.22
2023-04-20T11:12:16.013Z,4.47
2023-04-20T11:14:57.861Z,5.53
2023-04-20T11:17:34.670Z,5.43
2023-04-20T11:20:11.199Z,4.93
2023-04-20T11:22:41.838Z,4.90
2023-04-20T11:25:11.073Z,5.55
2023-04-20T11:27:39.078Z,5.38
2023-04-20T11:30:07.749Z,4.75
2023-04-20T11:32:35.760Z,4.35
2023-04-20T11:35:09.329Z,5.03
2023-04-20T11:37:53.797Z,4.72
2023-04-20T11:40:20.708Z,5.80
2023-04-20T11:42:47.684Z,4.90
2023-04-20T11:45:14.402Z,4.90
2023-04-20T11:47:41.578Z,4.88
2023-04-20T11:50:10.209Z,5.30
2023-04-20T11:52:39.831Z,5.10
2023-04-20T11:55:07.072Z,5.03
2023-04-20T11:57:34.563Z,6.38
2023-04-20T12:00:01.345Z,5.03
2023-04-20T12:02:28.459Z,5.15
2023-04-20T12:04:55.582Z,5.00
2023-04-20T12:07:22.616Z,5.10
2023-04-20T12:09:49.457Z,5.40
2023-04-20T12:12:16.210Z,5.28
2023-04-20T12:14:42.934Z,5.30
2023-04-20T12:17:09.802Z,4.75
2023-04-20T12:19:36.949Z,4.95
2023-04-20T12:22:03.769Z,4.90
2023-04-20T12:24:30.456Z,4.68
2023-04-20T12:26:59.282Z,4.70
2023-04-20T12:29:26.038Z,4.97
2023-04-20T12:31:52.743Z,5.38
2023-04-20T12:34:19.602Z,5.53
2023-04-20T12:36:46.480Z,4.72
2023-04-20T12:39:13.164Z,4.60
2023-04-20T12:41:41.822Z,5.07
2023-04-20T12:44:10.736Z,4.55
2023-04-20T12:46:38.410Z,4.47
2023-04-20T12:49:05.421Z,5.13
2023-04-20T12:51:32.373Z,4.20
2023-04-20T12:53:59.183Z,5.32
2023-04-20T12:56:26.005Z,4.13
2023-04-20T12:58:52.799Z,5.57
2023-04-20T13:01:19.629Z,4.57
2023-04-20T13:03:46.564Z,5.10
2023-04-20T13:06:14.608Z,5.00
2023-04-20T13:08:41.475Z,4.25
2023-04-20T13:11:11.955Z,4.43
2023-04-20T13:13:38.661Z,4.30
2023-04-20T13:16:05.763Z,3.97
2023-04-20T13:18:32.943Z,4.45
2023-04-20T13:20:59.641Z,4.43
2023-04-20T13:23:26.598Z,5.05
2023-04-20T13:25:53.451Z,4.85
2023-04-20T13:28:20.561Z,5.07
2023-04-20T13:30:47.472Z,5.53
2023-04-20T13:33:14.200Z,5.22
2023-04-20T13:35:43.835Z,4.45
2023-04-20T13:38:10.754Z,5.22
2023-04-20T13:40:37.451Z,4.47
2023-04-20T13:43:04.224Z,4.47
2023-04-20T13:45:31.444Z,4.00
2023-04-20T13:47:58.145Z,3.90
2023-04-20T13:50:25.123Z,4.50
2023-04-20T13:52:51.862Z,4.72
2023-04-20T13:55:20.635Z,4.70
2023-04-20T13:57:47.551Z,4.20
2023-04-20T14:00:14.794Z,4.65
2023-04-20T14:02:41.608Z,4.38
2023-04-20T14:05:09.299Z,4.57
2023-04-20T14:07:36.093Z,4.32
2023-04-20T14:10:02.985Z,4.60
2023-04-20T14:12:29.749Z,4.20
2023-04-20T14:15:00.638Z,4.68
2023-04-20T14:17:27.553Z,4.60
2023-04-20T14:19:54.313Z,4.63
2023-04-20T14:22:21.059Z,4.55
2023-04-20T14:24:48.934Z,4.15
2023-04-20T14:27:15.687Z,4.43
2023-04-20T14:29:42.470Z,4.78
2023-04-20T14:32:09.124Z,5.55
2023-04-20T14:34:36.004Z,4.47
2023-04-20T14:37:02.734Z,4.35
2023-04-20T14:39:29.492Z,4.30
2023-04-20T14:41:56.217Z,4.28
2023-04-20T14:44:22.942Z,4.20
2023-04-20T14:46:49.794Z,4.13
2023-04-20T14:49:16.669Z,4.35
2023-04-20T14:51:43.381Z,5.05
2023-04-20T14:54:10.096Z,4.75
2023-04-20T14:56:36.833Z,3.83
2023-04-20T14:59:03.597Z,4.85
2023-04-20T15:01:30.588Z,4.82
2023-04-20T15:03:57.474Z,5.15
2023-04-20T15:06:24.493Z,5.15
2023-04-20T15:08:54.437Z,5.00
2023-04-20T15:11:21.173Z,5.38
2023-04-20T15:13:49.412Z,4.68
2023-04-20T15:16:16.212Z,4.78
2023-04-20T15:18:43.220Z,4.85
2023-04-20T15:21:10.835Z,5.00
2023-04-20T15:23:37.574Z,4.68
2023-04-20T15:26:04.486Z,4.30
2023-04-20T15:28:31.136Z,4.70
2023-04-20T15:30:57.847Z,4.32
2023-04-20T15:33:24.758Z,4.57
2023-04-20T15:35:51.498Z,4.88
2023-04-20T15:38:18.244Z,4.65
2023-04-20T15:40:45.091Z,5.20
2023-04-20T15:43:11.842Z,4.50
2023-04-20T15:45:38.552Z,5.30
2023-04-20T15:48:06.256Z,5.47
2023-04-20T15:50:33.102Z,6.13
2023-04-20T15:52:59.805Z,5.05
2023-04-20T15:55:34.713Z,5.28
2023-04-20T15:58:04.181Z,4.55
2023-04-20T16:00:31.383Z,5.40
2023-04-20T16:02:58.677Z,4.22
2023-04-20T16:05:26.746Z,4.22
2023-04-20T16:07:59.589Z,5.05
2023-04-20T16:10:29.461Z,4.70
2023-04-20T16:12:56.673Z,4.15
2023-04-20T16:15:24.610Z,5.28
2023-04-20T16:17:51.447Z,4.28
2023-04-20T16:20:18.453Z,4.57
2023-04-20T16:22:45.132Z,4.95
2023-04-20T16:25:18.998Z,5.15
2023-04-20T16:27:45.652Z,4.90
2023-04-20T16:30:13.206Z,4.20
2023-04-20T16:32:41.535Z,4.53
2023-04-20T16:35:09.975Z,5.20
2023-04-20T16:37:36.684Z,4.97
2023-04-20T16:40:05.568Z,5.93
2023-04-20T16:42:32.414Z,6.40
2023-04-20T16:44:59.480Z,6.40
2023-04-20T16:47:26.815Z,7.10
2023-04-20T16:49:53.738Z,6.80
2023-04-20T16:52:20.529Z,6.93
2023-04-20T16:54:47.246Z,6.47
2023-04-20T16:57:14.075Z,6.10
2023-04-20T16:59:40.893Z,7.00
2023-04-20T17:02:08.017Z,6.20
2023-04-20T17:04:35.860Z,7.00
2023-04-20T17:07:06.617Z,6.75
2023-04-20T17:09:33.664Z,6.03
2023-04-20T17:12:01.326Z,7.10
2023-04-20T17:14:28.047Z,7.38
2023-04-20T17:16:56.397Z,6.10
2023-04-20T17:19:23.503Z,6.80
2023-04-20T17:21:50.463Z,6.03
2023-04-20T17:24:17.392Z,6.68
2023-04-20T17:26:46.406Z,6.95
2023-04-20T17:29:13.593Z,6.85
2023-04-20T17:31:40.349Z,6.60
2023-04-20T17:34:07.471Z,6.95
2023-04-20T17:36:34.369Z,6.47
2023-04-20T17:39:01.116Z,6.40
2023-04-20T17:41:28.401Z,5.80
2023-04-20T17:43:55.098Z,6.68
2023-04-20T17:46:23.050Z,6.38
2023-04-20T17:48:49.811Z,6.18
2023-04-20T17:51:16.498Z,6.65
2023-04-20T17:53:43.176Z,5.95
2023-04-20T17:56:10.917Z,6.93
2023-04-20T17:58:37.687Z,6.78
2023-04-20T18:01:04.884Z,6.70
2023-04-20T18:03:31.768Z,6.03
2023-04-20T18:05:58.802Z,7.78
2023-04-20T18:08:25.799Z,6.63
2023-04-20T18:10:52.498Z,6.80
2023-04-20T18:13:19.166Z,6.88
2023-04-20T18:15:46.042Z,6.95
2023-04-20T18:18:12.906Z,6.90
2023-04-20T18:20:40.377Z,6.60
2023-04-20T18:23:07.384Z,6.90
2023-04-20T18:25:34.163Z,6.78
2023-04-20T18:28:00.816Z,6.90
2023-04-20T18:30:27.463Z,6.70
2023-04-20T18:32:54.201Z,7.40
2023-04-20T18:35:20.889Z,6.88
2023-04-20T18:37:47.575Z,6.55
2023-04-20T18:40:16.047Z,6.75
2023-04-20T18:42:43.117Z,7.18
2023-04-20T18:45:11.326Z,7.05
2023-04-20T18:47:38.053Z,7.20
2023-04-20T18:50:06.015Z,7.63
2023-04-20T18:52:33.412Z,7.65
2023-04-20T18:55:00.264Z,7.20
2023-04-20T18:57:28.706Z,7.55
2023-04-20T18:59:56.420Z,7.30
2023-04-20T19:02:23.425Z,8.02
2023-04-20T19:04:53.989Z,7.47
2023-04-20T19:07:20.796Z,7.25
2023-04-20T19:09:47.464Z,7.20
2023-04-20T19:12:14.354Z,6.63
2023-04-20T19:14:41.143Z,6.85
2023-04-20T19:17:08.357Z,7.10
2023-04-20T19:19:35.084Z,6.95
2023-04-20T19:22:03.486Z,7.32
2023-04-20T19:24:32.028Z,7.70
2023-04-20T19:26:59.123Z,7.50
2023-04-20T19:29:25.970Z,7.20
2023-04-20T19:31:52.660Z,7.88
2023-04-20T19:34:20.539Z,6.75
2023-04-20T19:36:47.433Z,6.88
2023-04-20T19:39:14.269Z,6.60
2023-04-20T19:41:40.922Z,6.95
2023-04-20T19:44:09.771Z,6.65
2023-04-20T19:46:38.414Z,6.35
2023-04-20T19:49:05.612Z,7.40
2023-04-20T19:51:33.076Z,6.88
2023-04-20T19:54:01.501Z,6.93
2023-04-20T19:56:28.264Z,7.03
2023-04-20T19:58:55.012Z,6.85
2023-04-20T20:01:21.766Z,6.85
2023-04-20T20:03:48.686Z,6.38
2023-04-20T20:06:15.769Z,7.30
2023-04-20T20:08:42.635Z,6.95
2023-04-20T20:11:09.410Z,6.90
2023-04-20T20:13:36.111Z,6.93
2023-04-20T20:16:04.053Z,7.00
2023-04-20T20:18:31.062Z,7.35
2023-04-20T20:20:58.014Z,7.18
2023-04-20T20:23:24.719Z,7.82
2023-04-20T20:25:51.435Z,8.15
2023-04-20T20:28:18.690Z,9.45
2023-04-20T20:30:45.559Z,8.25
2023-04-20T20:33:12.566Z,8.13
2023-04-20T20:35:39.830Z,7.78
2023-04-20T20:38:07.886Z,7.90
2023-04-20T20:40:35.322Z,9.18
2023-04-20T20:43:02.663Z,9.60
2023-04-20T20:45:30.364Z,8.70
2023-04-20T20:47:57.899Z,9.18
2023-04-20T20:50:26.381Z,9.10
2023-04-20T20:52:53.155Z,9.38
2023-04-20T20:55:19.938Z,9.27
2023-04-20T20:57:46.658Z,9.35
2023-04-20T21:00:13.797Z,8.68
2023-04-20T21:02:40.692Z,9.82
2023-04-20T21:05:07.683Z,10.27
2023-04-20T21:07:34.551Z,9.98
2023-04-20T21:10:01.366Z,9.82
2023-04-20T21:12:28.171Z,10.32
2023-04-20T21:14:54.940Z,9.43
2023-04-20T21:17:21.627Z,9.75
2023-04-20T21:19:55.685Z,10.57
2023-04-20T21:22:23.097Z,10.70
2023-04-20T21:24:50.016Z,9.63
2023-04-20T21:27:16.662Z,9.30
2023-04-20T21:29:43.334Z,9.98
2023-04-20T21:32:10.199Z,10.02
2023-04-20T21:34:36.854Z,10.32
2023-04-20T21:37:05.259Z,9.23
2023-04-20T21:39:32.364Z,9.63
2023-04-20T21:41:59.733Z,9.40
2023-04-20T21:44:27.060Z,10.13
2023-04-20T21:46:53.862Z,9.38
2023-04-20T21:49:20.980Z,9.98
2023-04-20T21:51:47.766Z,10.55
2023-04-20T21:54:14.586Z,10.07
2023-04-20T21:56:41.492Z,11.32
2023-04-20T21:59:08.242Z,10.65
2023-04-20T22:01:34.990Z,11.02
2023-04-20T22:04:02.288Z,12.30
2023-04-20T22:06:29.400Z,11.02
2023-04-20T22:08:56.669Z,10.38
2023-04-20T22:11:23.415Z,11.32
2023-04-20T22:13:50.347Z,10.45
2023-04-20T22:16:18.128Z,11.77
2023-04-20T22:18:44.793Z,11.63
2023-04-20T22:21:11.449Z,10.57
2023-04-20T22:23:38.488Z,11.23
2023-04-20T22:26:05.256Z,11.40
2023-04-20T22:28:31.992Z,11.13
2023-04-20T22:30:58.664Z,12.15
2023-04-20T22:33:25.740Z,12.20
2023-04-20T22:35:53.137Z,11.40
2023-04-20T22:38:19.847Z,11.23
2023-04-20T22:40:46.827Z,12.15
2023-04-20T22:43:13.679Z,12.82
2023-04-20T22:45:40.704Z,11.55
2023-04-20T22:48:07.913Z,12.70
2023-04-20T22:50:35.713Z,13.88
2023-04-20T22:53:02.948Z,14.05
2023-04-20T22:55:29.616Z,12.55
2023-04-20T22:57:56.314Z,12.93
2023-04-20T23:00:23.122Z,13.25
2023-04-20T23:02:51.215Z,13.82
2023-04-20T23:05:20.415Z,13.88
2023-04-20T23:07:47.656Z,14.05
2023-04-20T23:10:17.506Z,15.05
2023-04-20T23:12:44.574Z,17.15
2023-04-20T23:15:12.110Z,16.20
2023-04-20T23:17:39.162Z,18.10
2023-04-20T23:20:13.748Z,17.60
2023-04-20T23:22:41.042Z,18.65
2023-04-20T23:25:09.563Z,20.50
2023-04-20T23:27:36.572Z,22.20
2023-04-20T23:30:03.576Z,21.65
2023-04-20T23:32:30.660Z,22.15
2023-04-20T23:34:57.570Z,21.92
2023-04-20T23:37:24.261Z,21.60
2023-04-20T23:39:50.959Z,20.92
2023-04-20T23:42:17.676Z,21.45
2023-04-20T23:44:44.596Z,20.58
2023-04-20T23:47:11.314Z,21.75
2023-04-20T23:49:37.953Z,20.45
2023-04-20T23:52:05.153Z,21.10
2023-04-20T23:54:33.376Z,20.67
2023-04-20T23:57:00.212Z,19.88
2023-04-20T23:59:27.004Z,19.55
